Time;durP1;ratioP1;P1;durP2;ratioP2;P2;SDS_P1;SDS_P2;PMS_P1;PMS_P2;Temp;Humidity;BMP_temperature;BMP_pressure;BME280_temperature;BME280_humidity;BME280_pressure;Samples;Min_cycle;Max_cycle;Signal;HPM_P1;HPM_P2
2024/04/19 00:01:08;;;;;;;8.70;4.73;;;;;;;;;;5452787;26;20224;-79
2024/04/19 00:03:37;;;;;;;8.63;4.90;;;;;;;;;;5453141;26;20340;-79
2024/04/19 00:06:03;;;;;;;7.17;4.90;;;;;;;;;;5453163;26;20228;-78
2024/04/19 00:08:35;;;;;;;10.80;4.63;;;;;;;;;;5462614;26;20238;-79
2024/04/19 00:11:02;;;;;;;7.80;4.60;;;;;;;;;;5489477;26;20226;-79
2024/04/19 00:13:30;;;;;;;10.93;4.47;;;;;;;;;;5488269;26;20239;-79
2024/04/19 00:15:57;;;;;;;7.60;4.97;;;;;;;;;;5488878;26;20611;-79
2024/04/19 00:18:26;;;;;;;7.33;5.00;;;;;;;;;;5489474;26;20231;-79
2024/04/19 00:20:54;;;;;;;8.77;4.57;;;;;;;;;;5489227;26;20355;-78
2024/04/19 00:23:23;;;;;;;9.10;5.73;;;;;;;;;;5489296;26;20283;-79
2024/04/19 00:25:52;;;;;;;7.37;4.60;;;;;;;;;;5489518;26;20712;-79
2024/04/19 00:28:21;;;;;;;8.57;4.10;;;;;;;;;;5488736;26;20235;-79
2024/04/19 00:30:47;;;;;;;4.60;3.70;;;;;;;;;;5489140;26;20227;-79
2024/04/19 00:33:16;;;;;;;6.70;4.47;;;;;;;;;;5489108;26;20239;-79
2024/04/19 00:35:43;;;;;;;6.03;3.40;;;;;;;;;;5489406;26;20745;-78
2024/04/19 00:38:12;;;;;;;4.90;3.97;;;;;;;;;;5488206;26;20269;-79
2024/04/19 00:40:38;;;;;;;5.07;3.50;;;;;;;;;;5488566;26;20231;-78
2024/04/19 00:43:10;;;;;;;5.67;3.70;;;;;;;;;;5489490;26;20631;-79
2024/04/19 00:45:37;;;;;;;8.53;4.17;;;;;;;;;;5488893;26;20219;-78
2024/04/19 00:48:07;;;;;;;5.47;3.57;;;;;;;;;;5489836;26;20323;-76
2024/04/19 00:50:34;;;;;;;7.33;3.90;;;;;;;;;;5488368;26;20731;-79
2024/04/19 00:53:04;;;;;;;5.40;3.53;;;;;;;;;;5488310;26;20235;-79
2024/04/19 00:55:31;;;;;;;8.67;4.03;;;;;;;;;;5488899;26;20227;-79
2024/04/19 00:58:00;;;;;;;8.67;6.17;;;;;;;;;;5488395;26;20303;-79
2024/04/19 01:00:29;;;;;;;11.23;6.27;;;;;;;;;;5488677;26;20219;-78
2024/04/19 01:02:59;;;;;;;8.83;6.57;;;;;;;;;;5489307;26;20584;-79
2024/04/19 01:05:25;;;;;;;10.47;5.83;;;;;;;;;;5483017;26;20744;-78
2024/04/19 01:07:54;;;;;;;14.13;6.20;;;;;;;;;;5452270;26;20775;-78
2024/04/19 01:10:20;;;;;;;10.00;6.03;;;;;;;;;;5452164;26;20224;-78
2024/04/19 01:12:49;;;;;;;9.57;6.53;;;;;;;;;;5452030;26;21148;-76
2024/04/19 01:15:16;;;;;;;10.57;6.53;;;;;;;;;;5485385;26;20277;-78
2024/04/19 01:17:47;;;;;;;11.53;6.20;;;;;;;;;;5489124;26;20280;-79
2024/04/19 01:20:14;;;;;;;10.00;5.83;;;;;;;;;;5488855;26;20269;-77
2024/04/19 01:22:44;;;;;;;11.43;5.40;;;;;;;;;;5488215;26;20298;-78
2024/04/19 01:25:11;;;;;;;10.60;5.17;;;;;;;;;;5488340;26;20223;-79
2024/04/19 01:27:43;;;;;;;8.60;4.83;;;;;;;;;;5488597;26;20228;-79
2024/04/19 01:30:10;;;;;;;8.23;4.97;;;;;;;;;;5488313;26;20716;-78
2024/04/19 01:32:38;;;;;;;9.97;4.73;;;;;;;;;;5487847;26;20231;-78
2024/04/19 01:35:05;;;;;;;8.37;4.50;;;;;;;;;;5488296;26;20227;-79
2024/04/19 01:37:34;;;;;;;6.53;4.20;;;;;;;;;;5488625;26;20235;-80
2024/04/19 01:40:01;;;;;;;10.33;4.47;;;;;;;;;;5487564;26;20242;-79
2024/04/19 01:42:29;;;;;;;6.97;4.13;;;;;;;;;;5488300;26;20234;-79
2024/04/19 01:44:58;;;;;;;10.93;4.40;;;;;;;;;;5488346;26;20558;-79
2024/04/19 01:47:27;;;;;;;6.30;4.13;;;;;;;;;;5488105;26;20272;-80
2024/04/19 01:49:53;;;;;;;9.00;5.07;;;;;;;;;;5488167;26;20218;-80
2024/04/19 01:52:22;;;;;;;8.67;5.20;;;;;;;;;;5488798;26;20230;-79
2024/04/19 01:54:48;;;;;;;10.53;5.37;;;;;;;;;;5487417;26;20855;-79
2024/04/19 01:57:17;;;;;;;10.10;4.80;;;;;;;;;;5487992;26;20230;-77
2024/04/19 01:59:43;;;;;;;8.23;4.50;;;;;;;;;;5488112;26;20332;-78
2024/04/19 02:02:15;;;;;;;9.20;4.97;;;;;;;;;;5487563;26;20264;-79
2024/04/19 02:04:41;;;;;;;8.07;4.67;;;;;;;;;;5488145;26;20265;-79
2024/04/19 02:07:10;;;;;;;8.77;4.90;;;;;;;;;;5488232;26;20298;-79
2024/04/19 02:09:36;;;;;;;10.13;4.70;;;;;;;;;;5487678;26;20724;-80
2024/04/19 02:12:05;;;;;;;6.93;4.97;;;;;;;;;;5486660;26;20231;-80
2024/04/19 02:14:33;;;;;;;7.03;4.67;;;;;;;;;;5487514;26;20611;-80
2024/04/19 02:17:01;;;;;;;9.03;4.90;;;;;;;;;;5488018;26;20223;-79
2024/04/19 02:19:36;;;;;;;7.33;4.40;;;;;;;;;;5488130;26;20712;-79
2024/04/19 02:22:05;;;;;;;5.57;4.47;;;;;;;;;;5486948;26;20234;-79
2024/04/19 02:24:31;;;;;;;9.43;4.73;;;;;;;;;;5487600;26;20260;-79
2024/04/19 02:27:01;;;;;;;6.67;4.87;;;;;;;;;;5488334;26;20241;-79
2024/04/19 02:32:14;;;;;;;7.10;4.20;;;;;;;;;;5489899;26;20615;-80
2024/04/19 02:34:46;;;;;;;6.40;4.90;;;;;;;;;;5487398;26;20229;-77
2024/04/19 02:37:14;;;;;;;5.40;4.53;;;;;;;;;;5486576;26;20225;-80
2024/04/19 02:39:43;;;;;;;7.53;4.73;;;;;;;;;;5486883;26;21181;-78
2024/04/19 02:42:12;;;;;;;8.13;4.53;;;;;;;;;;5487455;26;20226;-79
2024/04/19 02:44:41;;;;;;;7.73;4.97;;;;;;;;;;5487163;26;20268;-79
2024/04/19 02:47:10;;;;;;;7.43;4.60;;;;;;;;;;5487331;26;20264;-79
2024/04/19 02:49:39;;;;;;;7.90;5.27;;;;;;;;;;5487191;26;20218;-80
2024/04/19 02:52:10;;;;;;;7.60;5.50;;;;;;;;;;5486248;26;20268;-79
2024/04/19 02:54:39;;;;;;;11.13;5.50;;;;;;;;;;5486889;26;20225;-79
2024/04/19 02:57:08;;;;;;;8.27;5.40;;;;;;;;;;5487228;26;20263;-80
2024/04/19 02:59:37;;;;;;;8.97;5.33;;;;;;;;;;5487153;26;20364;-80
2024/04/19 03:02:06;;;;;;;10.70;6.00;;;;;;;;;;5486168;26;20267;-80
2024/04/19 03:04:36;;;;;;;8.50;5.63;;;;;;;;;;5486470;26;20270;-79
2024/04/19 03:07:05;;;;;;;10.60;5.70;;;;;;;;;;5485801;26;20275;-78
2024/04/19 03:09:37;;;;;;;10.57;6.00;;;;;;;;;;5484606;26;20235;-79
2024/04/19 03:12:06;;;;;;;10.23;6.47;;;;;;;;;;5486884;26;20222;-80
2024/04/19 03:14:34;;;;;;;9.97;6.20;;;;;;;;;;5463622;26;20281;-79
2024/04/19 03:17:03;;;;;;;9.30;6.17;;;;;;;;;;5450467;26;20222;-78
2024/04/19 03:19:29;;;;;;;10.37;6.40;;;;;;;;;;5450810;26;20219;-79
2024/04/19 03:21:58;;;;;;;7.13;6.00;;;;;;;;;;5486051;26;20234;-79
2024/04/19 03:24:27;;;;;;;13.40;6.50;;;;;;;;;;5487286;26;20257;-78
2024/04/19 03:26:59;;;;;;;10.27;5.90;;;;;;;;;;5486451;26;20234;-79
2024/04/19 03:29:27;;;;;;;10.03;6.37;;;;;;;;;;5486507;26;20277;-77
2024/04/19 03:31:56;;;;;;;9.70;6.63;;;;;;;;;;5486295;26;20230;-78
2024/04/19 03:34:26;;;;;;;14.47;7.60;;;;;;;;;;5486632;26;20276;-77
2024/04/19 03:36:55;;;;;;;9.73;6.50;;;;;;;;;;5486478;26;20643;-78
2024/04/19 03:39:23;;;;;;;11.83;6.93;;;;;;;;;;5486302;26;20235;-79
2024/04/19 03:41:52;;;;;;;12.60;7.40;;;;;;;;;;5485984;26;20225;-78
2024/04/19 03:47:09;;;;;;;10.00;6.27;;;;;;;;;;5489256;26;20267;-78
2024/04/19 03:49:38;;;;;;;12.53;6.90;;;;;;;;;;5485693;26;20229;-78
2024/04/19 03:52:07;;;;;;;11.30;6.70;;;;;;;;;;5486618;26;20590;-79
2024/04/19 03:54:35;;;;;;;10.07;7.00;;;;;;;;;;5485497;26;20228;-78
2024/04/19 03:57:04;;;;;;;12.73;7.30;;;;;;;;;;5486550;26;20707;-78
2024/04/19 03:59:36;;;;;;;10.20;6.90;;;;;;;;;;5485521;26;20615;-79
2024/04/19 04:02:05;;;;;;;10.00;7.50;;;;;;;;;;5486131;26;20222;-79
2024/04/19 04:04:34;;;;;;;10.03;7.07;;;;;;;;;;5485540;26;20417;-79
2024/04/19 04:07:03;;;;;;;10.73;6.77;;;;;;;;;;5486828;26;20369;-78
2024/04/19 04:09:32;;;;;;;10.33;6.73;;;;;;;;;;5485757;26;20572;-79
2024/04/19 04:12:01;;;;;;;11.57;6.60;;;;;;;;;;5480639;26;20276;-78
2024/04/19 04:14:30;;;;;;;12.03;6.37;;;;;;;;;;5489659;26;20273;-79
2024/04/19 04:17:02;;;;;;;11.53;6.10;;;;;;;;;;5489665;26;20237;-78
2024/04/19 04:19:31;;;;;;;12.33;6.47;;;;;;;;;;5488648;26;20222;-79
2024/04/19 04:22:00;;;;;;;13.23;6.97;;;;;;;;;;5489269;26;20773;-78
2024/04/19 04:24:29;;;;;;;10.47;6.87;;;;;;;;;;5490055;26;20267;-78
2024/04/19 04:26:58;;;;;;;10.60;7.70;;;;;;;;;;5489202;26;20272;-78
2024/04/19 04:29:29;;;;;;;11.37;7.33;;;;;;;;;;5488978;26;20226;-79
2024/04/19 04:31:58;;;;;;;12.27;7.50;;;;;;;;;;5488650;26;20271;-79
2024/04/19 04:34:29;;;;;;;13.93;7.63;;;;;;;;;;5488680;26;20664;-79
2024/04/19 04:36:58;;;;;;;10.57;7.43;;;;;;;;;;5489122;26;20611;-78
2024/04/19 04:39:27;;;;;;;12.20;7.73;;;;;;;;;;5488615;26;20276;-79
2024/04/19 04:41:56;;;;;;;14.83;7.87;;;;;;;;;;5489095;26;20238;-78
2024/04/19 04:44:32;;;;;;;12.73;8.37;;;;;;;;;;5489135;26;20217;-78
2024/04/19 04:47:01;;;;;;;14.87;8.00;;;;;;;;;;5488347;26;20333;-78
2024/04/19 04:49:32;;;;;;;12.17;7.73;;;;;;;;;;5489261;26;20242;-79
2024/04/19 04:52:01;;;;;;;11.97;7.40;;;;;;;;;;5489355;26;20271;-79
2024/04/19 04:54:30;;;;;;;13.23;8.13;;;;;;;;;;5488639;26;20232;-78
2024/04/19 04:56:59;;;;;;;11.03;7.43;;;;;;;;;;5487997;26;20225;-78
2024/04/19 04:59:28;;;;;;;16.07;8.17;;;;;;;;;;5489081;26;20235;-79
2024/04/19 05:01:56;;;;;;;13.17;8.10;;;;;;;;;;5488090;26;20275;-79
2024/04/19 05:04:25;;;;;;;12.27;8.07;;;;;;;;;;5488012;26;20619;-78
2024/04/19 05:06:57;;;;;;;13.53;8.27;;;;;;;;;;5488840;26;20270;-78
2024/04/19 05:09:26;;;;;;;13.73;8.67;;;;;;;;;;5488317;26;20272;-79
2024/04/19 05:11:55;;;;;;;15.63;8.90;;;;;;;;;;5487911;26;20360;-79
2024/04/19 05:14:23;;;;;;;12.10;8.20;;;;;;;;;;5488962;26;20233;-79
2024/04/19 05:16:52;;;;;;;13.30;8.70;;;;;;;;;;5488640;26;20224;-78
2024/04/19 05:19:21;;;;;;;15.83;9.23;;;;;;;;;;5488936;26;20227;-78
2024/04/19 05:21:50;;;;;;;16.63;9.40;;;;;;;;;;5488711;26;20633;-79
2024/04/19 05:24:22;;;;;;;16.10;8.67;;;;;;;;;;5488158;26;20267;-78
2024/04/19 05:26:50;;;;;;;14.00;8.83;;;;;;;;;;5489064;26;20234;-79
2024/04/19 05:29:19;;;;;;;13.07;8.63;;;;;;;;;;5489099;26;20597;-78
2024/04/19 05:31:48;;;;;;;13.97;8.60;;;;;;;;;;5487573;26;20224;-76
2024/04/19 05:34:17;;;;;;;12.63;8.40;;;;;;;;;;5488352;26;20264;-76
2024/04/19 05:36:46;;;;;;;11.70;8.63;;;;;;;;;;5488509;26;20224;-76
2024/04/19 05:39:15;;;;;;;14.70;8.10;;;;;;;;;;5488661;26;20738;-76
2024/04/19 05:41:46;;;;;;;12.67;8.97;;;;;;;;;;5484643;26;20279;-77
2024/04/19 05:44:18;;;;;;;12.83;8.50;;;;;;;;;;5487848;26;20580;-77
2024/04/19 05:46:47;;;;;;;15.43;8.73;;;;;;;;;;5486725;26;20234;-77
2024/04/19 05:49:16;;;;;;;12.13;8.33;;;;;;;;;;5488218;26;20397;-78
2024/04/19 05:51:45;;;;;;;13.27;8.20;;;;;;;;;;5488885;26;20230;-78
2024/04/19 05:54:14;;;;;;;12.47;8.60;;;;;;;;;;5488280;26;20754;-77
2024/04/19 05:56:43;;;;;;;15.90;8.50;;;;;;;;;;5486936;26;20265;-78
2024/04/19 05:59:14;;;;;;;13.20;8.47;;;;;;;;;;5488319;26;20273;-78
2024/04/19 06:01:44;;;;;;;14.30;8.87;;;;;;;;;;5487958;26;20234;-78
2024/04/19 06:04:13;;;;;;;11.53;7.53;;;;;;;;;;5487916;26;20981;-77
2024/04/19 06:06:42;;;;;;;12.90;7.90;;;;;;;;;;5488352;26;20219;-78
2024/04/19 06:09:11;;;;;;;12.97;8.43;;;;;;;;;;5451482;26;20274;-79
2024/04/19 06:11:40;;;;;;;12.93;8.63;;;;;;;;;;5452418;26;20271;-79
2024/04/19 06:14:09;;;;;;;10.87;8.00;;;;;;;;;;5482418;26;20230;-77
2024/04/19 06:16:40;;;;;;;9.63;6.73;;;;;;;;;;5487907;26;20278;-78
2024/04/19 06:19:09;;;;;;;8.73;6.10;;;;;;;;;;5487960;26;22054;-78
2024/04/19 06:21:38;;;;;;;8.57;6.20;;;;;;;;;;5487883;26;20222;-78
2024/04/19 06:24:07;;;;;;;9.90;5.93;;;;;;;;;;5487723;26;20269;-78
2024/04/19 06:26:36;;;;;;;9.87;5.97;;;;;;;;;;5487906;26;20231;-77
2024/04/19 06:29:04;;;;;;;9.60;5.73;;;;;;;;;;5488140;26;20224;-79
2024/04/19 06:31:34;;;;;;;7.10;5.33;;;;;;;;;;5487900;26;20237;-79
2024/04/19 06:34:06;;;;;;;8.50;5.40;;;;;;;;;;5487877;26;20228;-78
2024/04/19 06:36:35;;;;;;;8.00;5.00;;;;;;;;;;5486306;26;20231;-77
2024/04/19 06:39:04;;;;;;;6.77;4.80;;;;;;;;;;5487498;26;20223;-78
2024/04/19 06:41:33;;;;;;;5.97;5.03;;;;;;;;;;5487890;26;20243;-77
2024/04/19 06:44:02;;;;;;;6.00;4.33;;;;;;;;;;5487030;26;20282;-78
2024/04/19 06:46:32;;;;;;;9.00;4.47;;;;;;;;;;5487995;26;20223;-76
2024/04/19 06:49:01;;;;;;;7.93;4.67;;;;;;;;;;5487437;26;20265;-78
2024/04/19 06:51:32;;;;;;;7.03;4.90;;;;;;;;;;5487643;26;20271;-78
2024/04/19 06:54:01;;;;;;;6.23;4.80;;;;;;;;;;5487833;26;20227;-79
2024/04/19 06:56:30;;;;;;;8.70;5.07;;;;;;;;;;5486746;26;20220;-79
2024/04/19 06:58:59;;;;;;;7.05;4.93;;;;;;;;;;5488060;26;20226;-78
2024/04/19 07:01:28;;;;;;;6.38;4.38;;;;;;;;;;5488216;26;20708;-79
2024/04/19 07:03:57;;;;;;;5.03;3.65;;;;;;;;;;5486915;26;20264;-78
2024/04/19 07:06:25;;;;;;;7.15;3.72;;;;;;;;;;5485609;26;20281;-79
2024/04/19 07:08:57;;;;;;;5.57;4.30;;;;;;;;;;5486880;26;20332;-79
2024/04/19 07:11:26;;;;;;;6.50;4.15;;;;;;;;;;5474632;26;20227;-79
2024/04/19 07:13:55;;;;;;;6.22;4.35;;;;;;;;;;5475410;26;20232;-79
2024/04/19 07:16:23;;;;;;;6.93;4.25;;;;;;;;;;5486514;26;20235;-79
2024/04/19 07:18:51;;;;;;;6.28;3.95;;;;;;;;;;5487483;26;20356;-79
2024/04/19 07:21:20;;;;;;;4.75;3.50;;;;;;;;;;5487066;26;20235;-78
2024/04/19 07:23:49;;;;;;;5.65;3.78;;;;;;;;;;5486893;26;20582;-77
2024/04/19 07:26:20;;;;;;;6.90;3.00;;;;;;;;;;5486788;26;20231;-79
2024/04/19 07:28:49;;;;;;;4.25;3.10;;;;;;;;;;5486439;26;20223;-79
2024/04/19 07:31:18;;;;;;;7.40;3.03;;;;;;;;;;5486661;26;20262;-79
2024/04/19 07:33:47;;;;;;;5.28;3.13;;;;;;;;;;5487213;26;20754;-79
2024/04/19 07:36:15;;;;;;;5.45;2.90;;;;;;;;;;5486221;26;20224;-79
2024/04/19 07:38:44;;;;;;;4.35;2.90;;;;;;;;;;5486286;26;20227;-79
2024/04/19 07:41:13;;;;;;;3.95;2.65;;;;;;;;;;5486042;26;20373;-79
2024/04/19 07:43:45;;;;;;;5.07;2.72;;;;;;;;;;5486479;26;20223;-78
2024/04/19 07:46:14;;;;;;;11.63;2.95;;;;;;;;;;5486378;26;20282;-80
2024/04/19 07:48:43;;;;;;;5.75;3.60;;;;;;;;;;5490235;26;20782;-79
2024/04/19 07:51:12;;;;;;;5.55;3.65;;;;;;;;;;5490173;26;20278;-79
2024/04/19 07:53:40;;;;;;;4.95;2.90;;;;;;;;;;5489778;26;20235;-79
2024/04/19 07:56:09;;;;;;;4.78;2.58;;;;;;;;;;5489791;26;20731;-79
2024/04/19 07:58:38;;;;;;;5.68;3.10;;;;;;;;;;5489871;26;20742;-79
2024/04/19 08:01:10;;;;;;;4.72;2.60;;;;;;;;;;5489999;26;20228;-80
2024/04/19 08:03:38;;;;;;;5.38;2.58;;;;;;;;;;5489106;26;20281;-79
2024/04/19 08:06:08;;;;;;;4.43;2.10;;;;;;;;;;5490286;26;20262;-79
2024/04/19 08:08:37;;;;;;;2.83;2.22;;;;;;;;;;5489978;26;20716;-79
2024/04/19 08:11:06;;;;;;;3.25;1.98;;;;;;;;;;5489339;26;20270;-79
2024/04/19 08:13:35;;;;;;;4.90;2.33;;;;;;;;;;5490331;26;20566;-79
2024/04/19 08:16:04;;;;;;;4.90;2.30;;;;;;;;;;5489444;26;20274;-79
2024/04/19 08:18:36;;;;;;;3.00;2.28;;;;;;;;;;5489526;26;20270;-80
2024/04/19 08:21:04;;;;;;;4.07;2.60;;;;;;;;;;5489592;26;20223;-78
2024/04/19 08:23:33;;;;;;;4.88;2.70;;;;;;;;;;5489715;26;20587;-79
2024/04/19 08:26:02;;;;;;;3.72;2.50;;;;;;;;;;5489190;26;20274;-79
2024/04/19 08:28:31;;;;;;;6.18;2.70;;;;;;;;;;5489809;26;20295;-79
2024/04/19 08:31:00;;;;;;;3.90;2.03;;;;;;;;;;5489554;26;20231;-79
2024/04/19 08:33:29;;;;;;;4.43;2.08;;;;;;;;;;5489351;26;20231;-79
2024/04/19 08:36:01;;;;;;;3.78;2.00;;;;;;;;;;5489203;26;20220;-79
2024/04/19 08:38:31;;;;;;;4.93;2.30;;;;;;;;;;5489392;26;20266;-80
2024/04/19 08:41:01;;;;;;;3.25;2.20;;;;;;;;;;5488443;26;20720;-80
2024/04/19 08:43:30;;;;;;;4.35;2.20;;;;;;;;;;5489473;26;20231;-79
2024/04/19 08:46:00;;;;;;;4.35;2.10;;;;;;;;;;5489466;26;20258;-80
2024/04/19 08:48:29;;;;;;;4.40;1.85;;;;;;;;;;5488940;26;20712;-79
2024/04/19 08:51:02;;;;;;;3.88;1.90;;;;;;;;;;5489166;26;20270;-80
2024/04/19 08:53:31;;;;;;;3.63;1.65;;;;;;;;;;5488792;26;20215;-79
2024/04/19 08:56:01;;;;;;;2.75;1.60;;;;;;;;;;5487589;26;20227;-80
2024/04/19 08:58:30;;;;;;;3.63;1.50;;;;;;;;;;5487503;26;20273;-79
2024/04/19 09:01:00;;;;;;;4.63;1.45;;;;;;;;;;5488321;26;20227;-79
2024/04/19 09:03:29;;;;;;;2.92;1.17;;;;;;;;;;5488389;26;20231;-79
2024/04/19 09:06:01;;;;;;;4.05;1.40;;;;;;;;;;5487148;26;20282;-79
2024/04/19 09:08:31;;;;;;;2.72;0.98;;;;;;;;;;5486151;26;20223;-79
2024/04/19 09:11:00;;;;;;;2.63;1.10;;;;;;;;;;5487399;26;20231;-80
2024/04/19 09:13:28;;;;;;;4.35;0.90;;;;;;;;;;5487913;26;20298;-79
2024/04/19 09:15:57;;;;;;;1.80;0.60;;;;;;;;;;5487457;26;20339;-79
2024/04/19 09:18:26;;;;;;;2.38;0.75;;;;;;;;;;5485272;26;20270;-80
2024/04/19 09:20:55;;;;;;;1.73;0.77;;;;;;;;;;5489137;26;20220;-79
2024/04/19 09:23:27;;;;;;;1.33;0.70;;;;;;;;;;5489249;26;20227;-80
2024/04/19 09:25:56;;;;;;;2.17;0.80;;;;;;;;;;5488702;26;20265;-79
2024/04/19 09:28:25;;;;;;;1.48;0.90;;;;;;;;;;5489406;26;20266;-79
2024/04/19 09:30:55;;;;;;;1.52;0.80;;;;;;;;;;5489043;26;20223;-80
2024/04/19 09:33:24;;;;;;;2.88;1.10;;;;;;;;;;5488641;26;20719;-79
2024/04/19 09:35:55;;;;;;;3.10;0.80;;;;;;;;;;5489279;26;20227;-80
2024/04/19 09:38:27;;;;;;;2.83;0.88;;;;;;;;;;5488801;26;20912;-80
2024/04/19 09:40:55;;;;;;;3.30;0.90;;;;;;;;;;5488887;26;21008;-80
2024/04/19 09:43:26;;;;;;;3.60;1.17;;;;;;;;;;5489373;26;20757;-80
2024/04/19 09:45:57;;;;;;;2.28;0.70;;;;;;;;;;5488491;26;20223;-79
2024/04/19 09:48:32;;;;;;;4.85;1.00;;;;;;;;;;5488872;26;20229;-80
2024/04/19 09:51:01;;;;;;;1.48;0.90;;;;;;;;;;5488442;26;20269;-80
2024/04/19 09:53:34;;;;;;;1.83;0.80;;;;;;;;;;5488194;26;20716;-80
2024/04/19 09:56:08;;;;;;;2.63;0.73;;;;;;;;;;5488566;26;20223;-79
2024/04/19 09:58:37;;;;;;;2.15;0.70;;;;;;;;;;5483954;26;20231;-80
2024/04/19 10:01:06;;;;;;;2.35;0.60;;;;;;;;;;5482591;26;20266;-80
2024/04/19 10:03:35;;;;;;;1.80;0.90;;;;;;;;;;5487543;26;20266;-80
2024/04/19 10:06:05;;;;;;;3.72;0.80;;;;;;;;;;5487041;26;20227;-79
2024/04/19 10:08:37;;;;;;;3.83;1.20;;;;;;;;;;5487557;26;20263;-80
2024/04/19 10:11:07;;;;;;;4.15;1.65;;;;;;;;;;5485884;26;20257;-80
2024/04/19 10:13:36;;;;;;;2.55;1.27;;;;;;;;;;5484093;26;20582;-79
2024/04/19 10:16:05;;;;;;;4.03;1.55;;;;;;;;;;5486835;26;20227;-79
2024/04/19 10:18:37;;;;;;;1.92;0.90;;;;;;;;;;5485499;26;20223;-80
2024/04/19 10:21:06;;;;;;;1.75;1.00;;;;;;;;;;5482286;26;20270;-80
2024/04/19 10:23:39;;;;;;;2.67;1.25;;;;;;;;;;5456317;26;20278;-79
2024/04/19 10:26:08;;;;;;;3.35;1.00;;;;;;;;;;5486600;26;20231;-79
2024/04/19 10:28:37;;;;;;;1.95;1.02;;;;;;;;;;5487917;26;20278;-80
2024/04/19 10:31:08;;;;;;;2.28;1.00;;;;;;;;;;5487499;26;20274;-80
2024/04/19 10:33:37;;;;;;;3.47;1.05;;;;;;;;;;5487846;26;20239;-80
2024/04/19 10:36:06;;;;;;;3.97;1.02;;;;;;;;;;5487385;26;20232;-80
2024/04/19 10:38:38;;;;;;;3.25;1.00;;;;;;;;;;5487467;26;20278;-80
2024/04/19 10:41:07;;;;;;;4.57;1.25;;;;;;;;;;5487986;26;20266;-79
2024/04/19 10:43:44;;;;;;;4.35;1.52;;;;;;;;;;5487411;26;20235;-79
2024/04/19 10:46:14;;;;;;;5.25;1.83;;;;;;;;;;5483556;26;20231;-79
2024/04/19 10:48:44;;;;;;;4.00;1.38;;;;;;;;;;5457614;26;20335;-80
2024/04/19 10:51:15;;;;;;;3.15;1.30;;;;;;;;;;5485375;26;20243;-80
2024/04/19 10:53:47;;;;;;;2.05;1.50;;;;;;;;;;5486848;26;20228;-80
2024/04/19 10:56:16;;;;;;;2.78;1.30;;;;;;;;;;5486819;26;20282;-80
2024/04/19 10:58:44;;;;;;;3.38;1.25;;;;;;;;;;5487501;26;20270;-80
2024/04/19 11:01:13;;;;;;;3.90;1.40;;;;;;;;;;5487467;26;20585;-79
2024/04/19 11:03:42;;;;;;;3.03;1.48;;;;;;;;;;5485921;26;20281;-80
2024/04/19 11:06:11;;;;;;;1.90;1.30;;;;;;;;;;5486240;26;21135;-80
2024/04/19 11:08:40;;;;;;;3.13;1.13;;;;;;;;;;5487336;26;20219;-80
2024/04/19 11:11:12;;;;;;;2.67;1.27;;;;;;;;;;5487356;26;20219;-79
2024/04/19 11:13:41;;;;;;;2.38;1.25;;;;;;;;;;5487055;26;20278;-79
2024/04/19 11:16:10;;;;;;;3.15;1.58;;;;;;;;;;5486962;26;20617;-79
2024/04/19 11:18:38;;;;;;;1.27;0.95;;;;;;;;;;5486578;26;20227;-80
2024/04/19 11:21:07;;;;;;;6.13;1.52;;;;;;;;;;5486133;26;20814;-80
2024/04/19 11:23:36;;;;;;;5.55;1.80;;;;;;;;;;5489046;26;20235;-79
2024/04/19 11:26:05;;;;;;;3.00;1.40;;;;;;;;;;5460584;26;20261;-80
2024/04/19 11:28:37;;;;;;;3.78;1.83;;;;;;;;;;5490716;26;20281;-79
2024/04/19 11:31:11;;;;;;;4.00;1.83;;;;;;;;;;5490471;26;20273;-79
2024/04/19 11:33:40;;;;;;;3.80;1.70;;;;;;;;;;5490030;26;20222;-79
2024/04/19 11:36:11;;;;;;;4.10;1.80;;;;;;;;;;5490632;26;20269;-79
2024/04/19 11:38:40;;;;;;;4.80;2.17;;;;;;;;;;5490643;26;20230;-79
2024/04/19 11:41:09;;;;;;;4.45;1.95;;;;;;;;;;5490625;26;20743;-79
2024/04/19 11:43:40;;;;;;;4.88;2.10;;;;;;;;;;5490294;26;20323;-81
2024/04/19 11:46:09;;;;;;;4.55;2.10;;;;;;;;;;5490786;26;20261;-80
2024/04/19 11:48:38;;;;;;;4.57;1.90;;;;;;;;;;5490112;26;20227;-79
2024/04/19 11:51:07;;;;;;;6.38;2.17;;;;;;;;;;5490731;26;20262;-79
2024/04/19 11:53:36;;;;;;;4.00;2.10;;;;;;;;;;5490553;26;20654;-79
2024/04/19 11:56:02;;;;;;;4.57;2.20;;;;;;;;;;5490116;26;20220;-80
2024/04/19 11:58:31;;;;;;;5.70;2.50;;;;;;;;;;5490422;26;20283;-80
2024/04/19 12:01:04;;;;;;;3.80;2.10;;;;;;;;;;5490253;26;20296;-80
2024/04/19 12:03:33;;;;;;;5.07;2.37;;;;;;;;;;5490232;26;20222;-79
2024/04/19 12:06:02;;;;;;;7.53;2.37;;;;;;;;;;5490235;26;20567;-80
2024/04/19 12:08:31;;;;;;;5.73;2.17;;;;;;;;;;5490271;26;20262;-79
2024/04/19 12:10:59;;;;;;;5.23;2.33;;;;;;;;;;5490363;26;20227;-80
2024/04/19 12:13:28;;;;;;;7.33;2.40;;;;;;;;;;5489963;26;20231;-80
2024/04/19 12:15:57;;;;;;;5.90;2.57;;;;;;;;;;5489993;26;20265;-79
2024/04/19 12:18:29;;;;;;;7.20;2.17;;;;;;;;;;5489642;26;20273;-79
2024/04/19 12:20:57;;;;;;;4.90;1.90;;;;;;;;;;5489334;26;20219;-79
2024/04/19 12:23:26;;;;;;;7.77;2.17;;;;;;;;;;5489897;26;20227;-79
2024/04/19 12:25:55;;;;;;;3.87;1.67;;;;;;;;;;5489489;26;20219;-79
2024/04/19 12:28:24;;;;;;;3.93;1.80;;;;;;;;;;5490604;26;20223;-79
2024/04/19 12:30:54;;;;;;;5.80;2.22;;;;;;;;;;5488782;26;20604;-80
2024/04/19 12:33:23;;;;;;;6.68;2.30;;;;;;;;;;5483523;26;20335;-80
2024/04/19 12:35:53;;;;;;;6.72;1.90;;;;;;;;;;5488919;26;20696;-80
2024/04/19 12:38:23;;;;;;;3.42;1.80;;;;;;;;;;5490212;26;20615;-80
2024/04/19 12:40:52;;;;;;;6.70;2.42;;;;;;;;;;5489439;26;20243;-80
2024/04/19 12:43:21;;;;;;;5.13;2.33;;;;;;;;;;5488599;26;20220;-80
2024/04/19 12:45:50;;;;;;;7.93;2.67;;;;;;;;;;5489662;26;20223;-79
2024/04/19 12:48:20;;;;;;;5.20;2.03;;;;;;;;;;5490137;26;20610;-80
2024/04/19 12:50:49;;;;;;;5.50;2.13;;;;;;;;;;5489385;26;20220;-80
2024/04/19 12:53:22;;;;;;;5.43;2.07;;;;;;;;;;5490828;26;20226;-79
2024/04/19 12:55:51;;;;;;;8.13;2.43;;;;;;;;;;5490077;26;20267;-79
2024/04/19 12:58:21;;;;;;;5.60;2.57;;;;;;;;;;5489491;26;20227;-79
2024/04/19 13:00:50;;;;;;;4.03;2.30;;;;;;;;;;5489445;26;20269;-79
2024/04/19 13:03:18;;;;;;;5.60;1.70;;;;;;;;;;5489236;26;20238;-80
2024/04/19 13:05:47;;;;;;;4.10;1.83;;;;;;;;;;5484862;26;20228;-81
2024/04/19 13:08:16;;;;;;;6.27;2.23;;;;;;;;;;5488074;26;20274;-80
2024/04/19 13:10:48;;;;;;;10.17;7.27;;;;;;;;;;5480126;26;20322;-80
2024/04/19 13:13:17;;;;;;;7.43;4.80;;;;;;;;;;5480607;26;20732;-80
2024/04/19 13:15:46;;;;;;;13.03;11.00;;;;;;;;;;5472809;26;20274;-79
2024/04/19 13:18:14;;;;;;;7.77;3.63;;;;;;;;;;5488174;26;20227;-80
2024/04/19 13:20:43;;;;;;;5.97;1.97;;;;;;;;;;5487654;26;20223;-80
2024/04/19 13:23:12;;;;;;;5.67;2.50;;;;;;;;;;5488298;26;20232;-79
2024/04/19 13:25:41;;;;;;;10.97;8.30;;;;;;;;;;5488947;26;20231;-80
2024/04/19 13:28:12;;;;;;;9.10;6.27;;;;;;;;;;5488354;26;20235;-80
2024/04/19 13:30:41;;;;;;;7.63;2.20;;;;;;;;;;5487770;26;20242;-79
2024/04/19 13:33:10;;;;;;;2.63;1.97;;;;;;;;;;5488518;26;20262;-80
2024/04/19 13:35:39;;;;;;;6.93;3.30;;;;;;;;;;5488612;26;20227;-79
2024/04/19 13:38:08;;;;;;;4.77;2.43;;;;;;;;;;5488614;26;20231;-80
2024/04/19 13:40:37;;;;;;;4.53;2.13;;;;;;;;;;5488561;26;20784;-79
2024/04/19 13:43:06;;;;;;;6.00;2.00;;;;;;;;;;5488480;26;20274;-79
2024/04/19 13:45:38;;;;;;;5.27;1.90;;;;;;;;;;5487695;26;20212;-79
2024/04/19 13:48:07;;;;;;;3.60;1.80;;;;;;;;;;5488134;26;20231;-79
2024/04/19 13:50:36;;;;;;;4.70;2.03;;;;;;;;;;5488335;26;20223;-80
2024/04/19 13:53:07;;;;;;;3.60;2.05;;;;;;;;;;5488763;26;20231;-79
2024/04/19 13:55:36;;;;;;;5.78;2.20;;;;;;;;;;5488784;26;20223;-80
2024/04/19 13:58:06;;;;;;;3.88;1.65;;;;;;;;;;5488028;26;20353;-80
2024/04/19 14:00:37;;;;;;;6.18;1.70;;;;;;;;;;5488871;26;20223;-80
2024/04/19 14:03:07;;;;;;;3.22;1.73;;;;;;;;;;5488634;26;20223;-80
2024/04/19 14:05:37;;;;;;;5.90;1.55;;;;;;;;;;5488440;26;20219;-80
2024/04/19 14:08:07;;;;;;;4.15;1.80;;;;;;;;;;5488212;26;20231;-79
2024/04/19 14:10:35;;;;;;;5.22;1.80;;;;;;;;;;5488468;26;20219;-80
2024/04/19 14:13:04;;;;;;;3.85;1.42;;;;;;;;;;5487705;26;20754;-81
2024/04/19 14:15:35;;;;;;;5.88;1.90;;;;;;;;;;5451885;26;20788;-81
2024/04/19 14:18:06;;;;;;;5.50;1.88;;;;;;;;;;5451915;26;20229;-80
2024/04/19 14:20:35;;;;;;;3.88;1.48;;;;;;;;;;5451783;26;20224;-80
2024/04/19 14:23:04;;;;;;;2.78;1.30;;;;;;;;;;5451724;26;20216;-80
2024/04/19 14:25:34;;;;;;;4.75;1.67;;;;;;;;;;5451918;26;20224;-80
2024/04/19 14:28:04;;;;;;;3.47;1.30;;;;;;;;;;5451356;26;20340;-80
2024/04/19 14:30:32;;;;;;;3.03;1.60;;;;;;;;;;5451695;26;20225;-80
2024/04/19 14:33:01;;;;;;;2.78;1.52;;;;;;;;;;5452112;26;20221;-80
2024/04/19 14:35:35;;;;;;;6.10;1.75;;;;;;;;;;5451627;26;20220;-80
2024/04/19 14:38:04;;;;;;;5.30;1.98;;;;;;;;;;5451544;26;20291;-80
2024/04/19 14:40:33;;;;;;;5.22;1.80;;;;;;;;;;5451418;26;20236;-80
2024/04/19 14:43:01;;;;;;;4.60;1.70;;;;;;;;;;5451685;26;20711;-80
2024/04/19 14:45:30;;;;;;;6.27;2.20;;;;;;;;;;5451566;26;20224;-79
2024/04/19 14:47:59;;;;;;;3.60;2.00;;;;;;;;;;5450836;26;20236;-80
2024/04/19 14:50:28;;;;;;;3.37;1.83;;;;;;;;;;5451461;26;20621;-80
2024/04/19 14:53:00;;;;;;;5.53;1.60;;;;;;;;;;5451230;26;20320;-79
2024/04/19 14:55:29;;;;;;;4.73;1.90;;;;;;;;;;5475793;26;20335;-81
2024/04/19 14:57:58;;;;;;;4.43;2.60;;;;;;;;;;5485454;26;20290;-80